Time;durP1;ratioP1;P1;durP2;ratioP2;P2;SDS_P1;SDS_P2;PMS_P1;PMS_P2;Temp;Humidity;BMP_temperature;BMP_pressure;BME280_temperature;BME280_humidity;BME280_pressure;Samples;Min_cycle;Max_cycle;Signal;HPM_P1;HPM_P2
2020/12/19 00:02:07;;;;;;;4.82;2.40;;;17.20;52.30;;;;;;5065582;28;20178;-77
2020/12/19 00:04:34;;;;;;;4.03;2.10;;;17.20;52.30;;;;;;5050421;28;20529;-77
2020/12/19 00:06:59;;;;;;;2.95;1.98;;;17.20;52.40;;;;;;5032226;28;20047;-76
2020/12/19 00:09:45;;;;;;;4.88;2.08;;;17.20;52.40;;;;;;5052503;28;20490;-76
2020/12/19 00:12:11;;;;;;;3.80;2.10;;;17.20;52.40;;;;;;5048276;28;20076;-77
2020/12/19 00:14:37;;;;;;;2.78;1.98;;;17.20;52.40;;;;;;5082887;28;20467;-76
2020/12/19 00:17:02;;;;;;;6.15;2.35;;;17.10;52.30;;;;;;5064319;28;20223;-76
2020/12/19 00:19:28;;;;;;;5.10;2.10;;;17.20;52.40;;;;;;5078434;28;20044;-76
2020/12/19 00:21:54;;;;;;;4.30;2.00;;;17.20;52.40;;;;;;5063047;28;20090;-77
2020/12/19 00:24:20;;;;;;;4.28;1.92;;;17.10;52.40;;;;;;5067495;28;20059;-77
2020/12/19 00:27:09;;;;;;;3.85;2.00;;;17.10;52.40;;;;;;5038203;28;20044;-75
2020/12/19 00:29:55;;;;;;;6.07;2.00;;;17.20;52.50;;;;;;5064679;28;20140;-74
2020/12/19 00:32:21;;;;;;;3.65;1.90;;;17.10;52.40;;;;;;5068350;28;20106;-74
2020/12/19 00:34:46;;;;;;;3.88;2.13;;;17.10;52.50;;;;;;5082131;28;20041;-76
2020/12/19 00:37:12;;;;;;;3.00;1.95;;;17.20;52.50;;;;;;5043100;28;20177;-75
2020/12/19 00:39:38;;;;;;;3.15;1.90;;;17.10;52.50;;;;;;5083387;28;20033;-75
2020/12/19 00:42:04;;;;;;;3.92;2.33;;;17.10;52.50;;;;;;5070932;28;20078;-76
2020/12/19 00:44:29;;;;;;;6.45;2.30;;;17.10;52.50;;;;;;5087472;28;20028;-76
2020/12/19 00:47:15;;;;;;;4.10;1.90;;;17.10;52.60;;;;;;5049697;28;20453;-76
2020/12/19 00:49:41;;;;;;;4.78;2.10;;;17.00;52.50;;;;;;5080829;28;20080;-77
2020/12/19 00:52:06;;;;;;;2.78;2.10;;;17.10;52.60;;;;;;5068644;28;20057;-76
2020/12/19 00:54:52;;;;;;;2.75;1.85;;;17.10;52.50;;;;;;5055499;28;20125;-76
2020/12/19 00:57:18;;;;;;;4.80;2.10;;;17.10;52.60;;;;;;5082108;28;20036;-77
2020/12/19 00:59:43;;;;;;;2.85;1.80;;;17.10;52.50;;;;;;5085739;28;20082;-76
2020/12/19 01:02:09;;;;;;;3.25;2.20;;;17.20;52.60;;;;;;5069470;28;20040;-77
2020/12/19 01:04:35;;;;;;;4.57;2.35;;;17.10;52.60;;;;;;5051311;28;20055;-76
2020/12/19 01:07:01;;;;;;;4.68;1.98;;;17.00;52.50;;;;;;5087112;28;20048;-77
2020/12/19 01:09:26;;;;;;;4.60;2.10;;;17.10;52.60;;;;;;5078068;28;20041;-75
2020/12/19 01:11:52;;;;;;;4.50;2.00;;;17.10;52.60;;;;;;5084900;28;20055;-78
2020/12/19 01:14:17;;;;;;;5.63;1.95;;;17.10;52.60;;;;;;5066900;28;20132;-77
2020/12/19 01:16:43;;;;;;;3.58;2.08;;;17.10;52.60;;;;;;5071072;28;20040;-76
2020/12/19 01:19:09;;;;;;;3.75;2.10;;;17.10;52.60;;;;;;5081095;28;20107;-76
2020/12/19 01:21:35;;;;;;;4.82;2.20;;;17.00;52.50;;;;;;5069699;28;20049;-78
2020/12/19 01:24:01;;;;;;;2.30;1.90;;;17.00;52.60;;;;;;5087448;28;20040;-76
2020/12/19 01:26:26;;;;;;;3.78;2.03;;;17.00;52.60;;;;;;5072461;28;20044;-78
2020/12/19 01:29:12;;;;;;;3.65;2.10;;;17.00;52.60;;;;;;5067514;28;20514;-78
2020/12/19 01:31:38;;;;;;;2.60;2.00;;;17.10;52.60;;;;;;5081745;28;20033;-75
2020/12/19 01:34:23;;;;;;;3.83;2.10;;;17.00;52.50;;;;;;5066209;28;20071;-77
2020/12/19 01:36:49;;;;;;;4.38;2.03;;;17.00;52.60;;;;;;5068076;28;20122;-76
2020/12/19 01:39:15;;;;;;;3.72;1.98;;;17.00;52.60;;;;;;5084322;28;20032;-76
2020/12/19 01:41:41;;;;;;;3.28;2.05;;;17.00;52.60;;;;;;5081686;28;20106;-76
2020/12/19 01:44:06;;;;;;;3.47;2.03;;;17.00;52.60;;;;;;5067960;28;20044;-76
2020/12/19 01:46:42;;;;;;;3.20;2.20;;;17.00;52.60;;;;;;5067559;28;20052;-77
2020/12/19 01:49:28;;;;;;;;;;;17.00;52.60;;;;;;5068676;28;20552;-76
2020/12/19 01:51:56;;;;;;;2.90;2.00;;;17.00;52.60;;;;;;5065468;28;19920;-76
2020/12/19 01:54:42;;;;;;;3.80;2.20;;;17.00;52.50;;;;;;5052958;28;20060;-76
2020/12/19 01:57:34;;;;;;;5.32;1.90;;;17.00;52.50;;;;;;5052456;28;20080;-76
2020/12/19 01:59:59;;;;;;;6.20;2.80;;;17.00;52.50;;;;;;5082880;28;20064;-76
2020/12/19 02:02:45;;;;;;;5.30;2.30;;;17.00;53.10;;;;;;5069481;28;20135;-77
2020/12/19 02:05:11;;;;;;;5.50;2.33;;;17.00;52.50;;;;;;5078690;28;20127;-76
2020/12/19 02:07:36;;;;;;;3.78;2.40;;;17.00;52.40;;;;;;5067047;28;20415;-76
2020/12/19 02:10:02;;;;;;;3.72;2.20;;;17.00;52.50;;;;;;5069104;28;20155;-76
2020/12/19 02:12:48;;;;;;;5.55;2.10;;;17.00;52.50;;;;;;5052317;28;20415;-77
2020/12/19 02:15:13;;;;;;;5.60;2.40;;;17.00;52.50;;;;;;5051921;28;20048;-77
2020/12/19 02:17:59;;;;;;;3.08;2.20;;;17.00;52.40;;;;;;5067693;28;20076;-76
2020/12/19 02:20:25;;;;;;;3.97;2.60;;;17.00;52.40;;;;;;5050231;28;20037;-77
2020/12/19 02:23:14;;;;;;;4.25;2.22;;;17.00;52.40;;;;;;5052125;28;20044;-77
2020/12/19 02:25:39;;;;;;;6.78;2.80;;;17.00;52.40;;;;;;5069551;28;20117;-76
2020/12/19 02:28:06;;;;;;;3.15;2.10;;;17.00;52.40;;;;;;5083217;28;20052;-77
2020/12/19 02:30:52;;;;;;;4.63;2.45;;;17.00;52.40;;;;;;5065096;28;20091;-77
2020/12/19 02:33:18;;;;;;;5.10;2.38;;;17.00;52.40;;;;;;5083263;28;20032;-76
2020/12/19 02:35:43;;;;;;;3.35;2.30;;;16.90;52.30;;;;;;5082516;28;20377;-76
2020/12/19 02:38:09;;;;;;;3.05;2.20;;;16.90;52.30;;;;;;5068960;28;20036;-75
2020/12/19 02:40:55;;;;;;;3.53;2.10;;;17.00;52.40;;;;;;5077454;28;20127;-76
2020/12/19 02:43:20;;;;;;;5.50;2.20;;;17.00;52.40;;;;;;5063752;28;20123;-76
2020/12/19 02:45:46;;;;;;;4.47;2.25;;;16.90;52.40;;;;;;5083907;28;20050;-76
2020/12/19 02:48:32;;;;;;;3.17;2.00;;;16.90;52.40;;;;;;5054611;28;20051;-75
2020/12/19 02:51:17;;;;;;;3.30;2.20;;;16.90;52.30;;;;;;5040309;28;20041;-77
2020/12/19 02:53:43;;;;;;;2.90;1.92;;;16.90;52.40;;;;;;5067454;28;20131;-75
2020/12/19 02:56:09;;;;;;;4.95;2.30;;;16.90;52.40;;;;;;5066963;28;20170;-76
2020/12/19 02:58:54;;;;;;;3.50;2.00;;;16.80;52.30;;;;;;5064996;28;20373;-76
2020/12/19 03:01:25;;;;;;;3.17;2.17;;;16.90;52.40;;;;;;5063879;28;20051;-76
2020/12/19 03:03:51;;;;;;;2.60;2.13;;;16.90;52.40;;;;;;5082701;28;20032;-76
2020/12/19 03:06:17;;;;;;;4.20;2.40;;;16.90;52.40;;;;;;5068392;28;20369;-76
2020/12/19 03:09:03;;;;;;;3.20;2.40;;;16.90;52.40;;;;;;5061967;28;20036;-76
2020/12/19 03:11:29;;;;;;;3.47;2.33;;;16.90;52.40;;;;;;5081994;28;20135;-75
2020/12/19 03:13:55;;;;;;;4.40;2.42;;;16.90;52.50;;;;;;5083232;28;20033;-77
2020/12/19 03:16:20;;;;;;;5.25;2.67;;;16.90;52.40;;;;;;5084218;28;20044;-77
2020/12/19 03:19:06;;;;;;;3.70;2.10;;;16.90;52.40;;;;;;5052754;28;20033;-76
2020/12/19 03:21:32;;;;;;;3.05;2.60;;;16.90;53.00;;;;;;5050835;28;20158;-75
2020/12/19 03:23:58;;;;;;;2.78;2.03;;;16.90;52.40;;;;;;5067389;28;20135;-76
2020/12/19 03:26:24;;;;;;;4.88;2.55;;;16.90;53.10;;;;;;5066541;28;20136;-75
2020/12/19 03:28:49;;;;;;;5.57;2.60;;;16.90;52.50;;;;;;5066709;28;20049;-76
2020/12/19 03:31:15;;;;;;;3.38;2.20;;;16.80;52.40;;;;;;5068392;28;20056;-76
2020/12/19 03:33:41;;;;;;;3.38;2.30;;;16.90;52.40;;;;;;5082652;28;20094;-76
2020/12/19 03:36:06;;;;;;;3.55;2.30;;;16.90;52.40;;;;;;5065202;28;20032;-76
2020/12/19 03:38:32;;;;;;;4.03;2.28;;;16.90;52.40;;;;;;5082628;28;20041;-76
2020/12/19 03:40:58;;;;;;;4.80;2.20;;;16.90;52.40;;;;;;5082674;28;20411;-75
2020/12/19 03:43:24;;;;;;;3.17;2.30;;;16.90;52.40;;;;;;5081671;28;20093;-76
2020/12/19 03:45:49;;;;;;;2.28;2.00;;;16.90;52.40;;;;;;5066357;28;20106;-76
2020/12/19 03:48:15;;;;;;;4.95;2.00;;;16.90;52.40;;;;;;5081509;28;20075;-76
2020/12/19 03:50:41;;;;;;;3.20;2.30;;;16.80;52.40;;;;;;5050834;28;20177;-76
2020/12/19 03:53:26;;;;;;;3.72;2.20;;;16.90;52.40;;;;;;5050410;28;20061;-76
2020/12/19 03:55:52;;;;;;;3.35;2.40;;;16.90;52.40;;;;;;5066561;28;20401;-75
2020/12/19 03:58:18;;;;;;;2.38;1.92;;;16.90;52.40;;;;;;5065869;28;20112;-76
2020/12/19 04:00:43;;;;;;;2.53;1.92;;;16.90;52.40;;;;;;5082321;28;20051;-76
2020/12/19 04:03:09;;;;;;;3.47;2.08;;;16.90;52.40;;;;;;5070027;28;20151;-76
2020/12/19 04:05:35;;;;;;;3.00;2.00;;;16.90;52.50;;;;;;5084056;28;20040;-76
2020/12/19 04:08:20;;;;;;;3.35;2.35;;;16.80;52.40;;;;;;5057001;28;20471;-76
2020/12/19 04:11:06;;;;;;;2.83;2.15;;;16.80;52.40;;;;;;5043209;28;20036;-76
2020/12/19 04:13:32;;;;;;;3.55;2.53;;;16.80;52.40;;;;;;5069144;28;20057;-76
2020/12/19 04:15:58;;;;;;;4.88;2.25;;;16.90;52.50;;;;;;5087375;28;20471;-75
2020/12/19 04:18:24;;;;;;;2.92;2.08;;;16.80;52.40;;;;;;5070674;28;20046;-76
2020/12/19 04:20:49;;;;;;;4.07;2.38;;;16.80;52.40;;;;;;5063859;28;20349;-76
2020/12/19 04:23:35;;;;;;;2.60;2.25;;;16.80;52.40;;;;;;5054302;28;20059;-77
2020/12/19 04:26:01;;;;;;;2.50;2.20;;;16.90;52.50;;;;;;5054077;28;20042;-76
2020/12/19 04:28:47;;;;;;;2.97;2.30;;;16.80;52.40;;;;;;5053887;28;20102;-76
2020/12/19 04:31:12;;;;;;;3.58;2.22;;;16.80;52.40;;;;;;5084351;28;20032;-76
2020/12/19 04:33:38;;;;;;;2.75;2.22;;;16.80;52.40;;;;;;5084692;28;20025;-76
2020/12/19 04:36:24;;;;;;;3.92;1.83;;;16.80;52.40;;;;;;5055920;28;20049;-76
2020/12/19 04:38:49;;;;;;;3.78;2.17;;;16.80;52.50;;;;;;5061195;28;20040;-75
2020/12/19 04:41:15;;;;;;;3.40;2.13;;;16.80;52.40;;;;;;5084279;28;20059;-76
2020/12/19 04:44:02;;;;;;;4.47;2.53;;;16.80;52.50;;;;;;5057329;28;20408;-77
2020/12/19 04:46:31;;;;;;;3.45;2.47;;;16.80;52.50;;;;;;5069801;28;20061;-76
2020/12/19 04:48:57;;;;;;;2.90;2.33;;;16.80;52.50;;;;;;5086908;28;20415;-76
2020/12/19 04:51:24;;;;;;;2.35;2.15;;;16.80;52.50;;;;;;5085144;28;20472;-76
2020/12/19 04:54:10;;;;;;;3.78;2.30;;;16.80;52.60;;;;;;5074139;28;20049;-76
2020/12/19 04:56:55;;;;;;;4.90;2.22;;;16.80;52.50;;;;;;5069410;28;20132;-75
2020/12/19 04:59:21;;;;;;;4.68;2.63;;;16.70;52.40;;;;;;5070268;28;20563;-76
2020/12/19 05:01:47;;;;;;;3.58;2.38;;;16.80;52.50;;;;;;5068854;28;20094;-77
2020/12/19 05:04:13;;;;;;;5.55;2.63;;;16.80;52.50;;;;;;5080762;28;20157;-76
2020/12/19 05:06:39;;;;;;;3.63;2.47;;;16.70;52.40;;;;;;5050573;28;20072;-76
2020/12/19 05:09:05;;;;;;;3.08;2.53;;;16.70;52.50;;;;;;5052975;28;20060;-76
2020/12/19 05:11:30;;;;;;;4.20;2.38;;;16.80;52.50;;;;;;5068856;28;20444;-76
2020/12/19 05:13:56;;;;;;;3.58;2.55;;;16.80;52.50;;;;;;5068449;28;20055;-76
2020/12/19 05:16:21;;;;;;;3.63;2.78;;;16.70;52.40;;;;;;5068794;28;20036;-76
2020/12/19 05:18:47;;;;;;;3.30;2.40;;;16.70;52.40;;;;;;5082091;28;20047;-76
2020/12/19 05:21:13;;;;;;;4.95;2.40;;;16.60;52.40;;;;;;5085247;28;20031;-76
2020/12/19 05:23:42;;;;;;;4.10;2.40;;;16.70;52.40;;;;;;5084445;28;20082;-78
2020/12/19 05:26:12;;;;;;;3.67;2.60;;;16.70;52.40;;;;;;5062250;28;20052;-76
2020/12/19 05:28:42;;;;;;;3.53;2.42;;;16.70;52.40;;;;;;5064075;28;20036;-75
2020/12/19 05:31:27;;;;;;;3.83;2.50;;;16.70;52.40;;;;;;5043993;28;20140;-75
2020/12/19 05:34:13;;;;;;;4.10;2.50;;;16.70;52.50;;;;;;5042509;28;20041;-75
2020/12/19 05:36:59;;;;;;;4.35;2.65;;;16.70;52.40;;;;;;5057049;28;20051;-75
2020/12/19 05:39:24;;;;;;;4.20;2.40;;;16.80;52.50;;;;;;5085923;28;20044;-76
2020/12/19 05:41:50;;;;;;;3.15;2.38;;;16.70;52.50;;;;;;5054406;28;20945;-75
2020/12/19 05:44:22;;;;;;;2.42;2.10;;;16.70;52.40;;;;;;5086368;28;20499;-75
2020/12/19 05:47:11;;;;;;;4.72;2.70;;;16.70;52.40;;;;;;5042930;28;20044;-74
2020/12/19 05:49:57;;;;;;;4.55;2.38;;;16.70;52.40;;;;;;5072714;28;20125;-75
2020/12/19 05:52:23;;;;;;;2.97;2.30;;;16.70;52.40;;;;;;5052278;28;20071;-76
2020/12/19 05:54:48;;;;;;;2.92;2.30;;;16.70;52.50;;;;;;5053453;28;20060;-75
2020/12/19 05:57:35;;;;;;;3.97;2.50;;;16.70;52.50;;;;;;5042516;28;20071;-76
2020/12/19 06:00:02;;;;;;;4.97;2.45;;;16.70;53.10;;;;;;5051641;28;20119;-76
2020/12/19 06:02:48;;;;;;;3.70;2.55;;;16.70;52.40;;;;;;5043069;28;20040;-75
2020/12/19 06:05:14;;;;;;;5.93;2.60;;;16.70;52.40;;;;;;5050490;28;20056;-75
2020/12/19 06:07:41;;;;;;;3.13;2.30;;;16.70;52.40;;;;;;5053505;28;20108;-76
2020/12/19 06:10:08;;;;;;;2.90;2.50;;;16.70;52.50;;;;;;5067486;28;20053;-76
2020/12/19 06:12:50;;;;;;;2.47;2.10;;;16.70;52.50;;;;;;5069923;28;20468;-76
2020/12/19 06:15:42;;;;;;;3.00;2.20;;;16.70;52.50;;;;;;5049956;28;20048;-76
2020/12/19 06:18:33;;;;;;;5.03;2.70;;;16.70;52.50;;;;;;5069313;28;20040;-77
2020/12/19 06:20:58;;;;;;;3.13;2.42;;;16.70;52.50;;;;;;5065806;28;20094;-77
2020/12/19 06:23:44;;;;;;;5.13;2.65;;;16.70;52.50;;;;;;5065811;28;20049;-75
2020/12/19 06:26:35;;;;;;;3.38;2.50;;;16.70;52.50;;;;;;5068342;28;20048;-77
2020/12/19 06:29:01;;;;;;;8.63;2.53;;;16.70;52.50;;;;;;5064150;28;20060;-75
2020/12/19 06:31:27;;;;;;;4.45;2.40;;;16.70;52.50;;;;;;5078233;28;20438;-76
2020/12/19 06:34:13;;;;;;;4.60;2.90;;;16.70;52.50;;;;;;5068703;28;20032;-75
2020/12/19 06:36:38;;;;;;;3.47;2.35;;;16.70;52.60;;;;;;5066228;28;20056;-76
2020/12/19 06:39:09;;;;;;;6.45;2.38;;;16.70;52.60;;;;;;5050910;28;20048;-76
2020/12/19 06:41:43;;;;;;;6.13;2.80;;;16.70;52.60;;;;;;5051835;28;20049;-78
2020/12/19 06:44:33;;;;;;;5.95;2.22;;;16.70;52.70;;;;;;5039673;28;20400;-77
2020/12/19 06:47:00;;;;;;;3.83;2.17;;;16.60;52.60;;;;;;5053759;28;20119;-76
2020/12/19 06:49:31;;;;;;;13.30;2.60;;;16.70;52.70;;;;;;5068401;28;20113;-76
2020/12/19 06:52:02;;;;;;;6.32;2.20;;;16.60;52.60;;;;;;5052114;28;20083;-76
2020/12/19 06:54:41;;;;;;;5.93;2.40;;;16.70;52.70;;;;;;5084865;28;20051;-76
2020/12/19 06:57:30;;;;;;;12.25;2.58;;;16.70;52.70;;;;;;5065822;28;20128;-76
2020/12/19 07:00:18;;;;;;;3.08;2.40;;;16.70;52.80;;;;;;5052021;28;20033;-75
2020/12/19 07:03:02;;;;;;;5.03;2.40;;;16.60;52.80;;;;;;5052521;28;20040;-76
2020/12/19 07:05:32;;;;;;;3.90;2.38;;;16.70;53.00;;;;;;5064662;28;20041;-76
2020/12/19 07:08:18;;;;;;;5.85;2.35;;;16.60;52.90;;;;;;5080062;28;20039;-76
2020/12/19 07:10:43;;;;;;;;;;;16.60;52.90;;;;;;5077386;28;20057;-76
2020/12/19 07:13:09;;;;;;;5.97;2.45;;;16.60;52.90;;;;;;5084061;28;19956;-76
2020/12/19 07:15:55;;;;;;;3.83;2.15;;;16.50;53.00;;;;;;5056687;28;20139;-76
2020/12/19 07:18:27;;;;;;;3.05;2.40;;;16.50;53.10;;;;;;5053375;28;20124;-76
2020/12/19 07:21:06;;;;;;;4.90;2.55;;;16.50;53.10;;;;;;5085781;28;20118;-75
2020/12/19 07:23:33;;;;;;;3.85;2.50;;;16.50;53.20;;;;;;5077841;28;20047;-76
2020/12/19 07:25:59;;;;;;;3.53;2.45;;;16.50;53.20;;;;;;5087915;28;20033;-76
2020/12/19 07:28:26;;;;;;;5.55;2.70;;;16.50;53.20;;;;;;5066968;28;20145;-76
2020/12/19 07:30:52;;;;;;;6.53;2.70;;;16.50;53.20;;;;;;5051689;28;20025;-76
2020/12/19 07:33:38;;;;;;;3.05;2.53;;;16.50;53.30;;;;;;5051997;28;20041;-75
2020/12/19 07:36:04;;;;;;;4.25;2.60;;;16.60;53.20;;;;;;5064559;28;20135;-74
2020/12/19 07:38:29;;;;;;;6.70;3.15;;;16.60;53.20;;;;;;5086013;28;20070;-73
2020/12/19 07:40:55;;;;;;;8.48;3.10;;;16.60;53.20;;;;;;5072670;28;20111;-74
2020/12/19 07:43:21;;;;;;;5.90;3.33;;;16.70;53.20;;;;;;5088387;28;20064;-74
2020/12/19 07:45:49;;;;;;;5.72;3.15;;;16.60;53.10;;;;;;5086242;28;20394;-74
2020/12/19 07:48:15;;;;;;;12.48;3.28;;;16.50;53.00;;;;;;5072893;28;20032;-75
2020/12/19 07:50:41;;;;;;;5.25;3.10;;;16.60;52.90;;;;;;5073564;28;20032;-75
2020/12/19 07:53:07;;;;;;;8.85;3.30;;;16.60;52.80;;;;;;5088352;28;20534;-75
2020/12/19 07:55:53;;;;;;;8.43;3.53;;;16.70;52.80;;;;;;5058391;28;20058;-74
2020/12/19 07:58:19;;;;;;;5.32;3.15;;;16.60;52.80;;;;;;5055975;28;20028;-75
2020/12/19 08:00:44;;;;;;;6.70;3.25;;;16.60;52.70;;;;;;5055771;28;20049;-76
2020/12/19 08:03:11;;;;;;;9.27;3.30;;;16.60;52.70;;;;;;5055126;28;20066;-77
2020/12/19 08:05:36;;;;;;;13.65;3.30;;;16.70;52.80;;;;;;5054691;28;20049;-75
2020/12/19 08:08:02;;;;;;;9.32;3.20;;;16.70;53.10;;;;;;5072324;28;20034;-73
2020/12/19 08:10:28;;;;;;;6.70;3.25;;;16.70;53.30;;;;;;5072098;28;20067;-73
2020/12/19 08:12:53;;;;;;;14.25;3.53;;;16.70;53.40;;;;;;5071663;28;20052;-73
2020/12/19 08:15:20;;;;;;;8.43;3.72;;;16.70;53.40;;;;;;5037534;28;20403;-73
2020/12/19 08:18:06;;;;;;;14.23;3.75;;;16.70;53.40;;;;;;5071963;28;20068;-76
2020/12/19 08:20:33;;;;;;;10.48;3.58;;;16.80;53.40;;;;;;5039553;28;20040;-75
2020/12/19 08:23:00;;;;;;;12.77;4.00;;;16.80;53.30;;;;;;5085424;28;20370;-76
2020/12/19 08:25:26;;;;;;;17.10;4.10;;;16.80;53.30;;;;;;5065274;28;20099;-76
2020/12/19 08:27:52;;;;;;;8.18;3.65;;;16.80;53.10;;;;;;5071388;28;20075;-76
2020/12/19 08:30:24;;;;;;;10.27;3.80;;;16.90;53.00;;;;;;5085435;28;20441;-76
2020/12/19 08:32:55;;;;;;;8.82;3.83;;;17.00;52.90;;;;;;5071205;28;20028;-76
2020/12/19 08:35:44;;;;;;;9.55;3.95;;;17.00;52.90;;;;;;5043313;28;20055;-75
2020/12/19 08:38:15;;;;;;;6.20;3.58;;;17.00;52.80;;;;;;5071898;28;20068;-75
2020/12/19 08:40:45;;;;;;;9.80;3.97;;;17.10;52.60;;;;;;5051988;28;20045;-75
2020/12/19 08:43:31;;;;;;;8.63;3.60;;;17.10;52.40;;;;;;5057746;28;20044;-76
2020/12/19 08:46:12;;;;;;;7.38;3.92;;;17.10;52.40;;;;;;5054776;28;20141;-74
2020/12/19 08:49:02;;;;;;;8.27;3.55;;;17.10;52.20;;;;;;5043002;28;20040;-75
2020/12/19 08:51:36;;;;;;;8.75;3.78;;;17.30;51.90;;;;;;5072003;28;20049;-77
2020/12/19 08:54:22;;;;;;;8.10;3.80;;;17.30;51.70;;;;;;5043946;28;20040;-74
2020/12/19 08:56:50;;;;;;;5.88;3.22;;;17.30;51.80;;;;;;5052320;28;20052;-76
2020/12/19 08:59:24;;;;;;;15.60;3.55;;;17.30;51.80;;;;;;5073060;28;20056;-74
2020/12/19 09:01:51;;;;;;;7.90;3.63;;;17.40;51.40;;;;;;5085337;28;20032;-75
2020/12/19 09:04:17;;;;;;;5.25;3.55;;;17.50;51.50;;;;;;5068892;28;20053;-74
2020/12/19 09:06:50;;;;;;;6.88;3.70;;;17.40;51.30;;;;;;5085307;28;20066;-74
2020/12/19 09:09:28;;;;;;;9.75;3.35;;;17.40;51.20;;;;;;5087391;28;20040;-74
2020/12/19 09:12:10;;;;;;;5.43;3.67;;;17.50;50.90;;;;;;5071167;28;20395;-74
2020/12/19 09:14:35;;;;;;;5.05;3.75;;;17.70;50.70;;;;;;5070679;28;20392;-74
2020/12/19 09:17:01;;;;;;;5.40;3.85;;;17.60;50.80;;;;;;5069739;28;20045;-73
2020/12/19 09:19:27;;;;;;;8.23;3.67;;;17.60;50.80;;;;;;5070893;28;20052;-74
2020/12/19 09:21:54;;;;;;;5.90;3.67;;;17.60;50.70;;;;;;5066781;28;20076;-75
2020/12/19 09:24:20;;;;;;;5.60;3.60;;;17.60;50.50;;;;;;5057171;28;20059;-74
2020/12/19 09:27:06;;;;;;;5.55;3.70;;;17.70;50.40;;;;;;5056555;28;20043;-71
2020/12/19 09:29:31;;;;;;;5.28;3.70;;;17.70;50.30;;;;;;5086291;28;20044;-73
2020/12/19 09:31:58;;;;;;;6.00;3.92;;;17.60;50.20;;;;;;5087999;28;20041;-74
2020/12/19 09:34:24;;;;;;;7.57;3.78;;;17.60;50.20;;;;;;5083739;28;20054;-74
2020/12/19 09:37:10;;;;;;;6.03;3.88;;;17.70;49.90;;;;;;5056135;28;20471;-74
2020/12/19 09:39:55;;;;;;;5.68;4.15;;;17.90;49.80;;;;;;5069430;28;20135;-74
2020/12/19 09:42:41;;;;;;;4.75;3.40;;;17.80;49.70;;;;;;5053739;28;20080;-74
2020/12/19 09:45:07;;;;;;;5.30;3.72;;;17.80;49.70;;;;;;5082036;28;20130;-74
2020/12/19 09:47:32;;;;;;;6.38;3.85;;;17.80;50.40;;;;;;5037921;28;20048;-74
2020/12/19 09:49:58;;;;;;;7.57;3.80;;;17.80;49.60;;;;;;5085231;28;20052;-74
2020/12/19 09:52:23;;;;;;;10.00;3.97;;;17.90;49.50;;;;;;5084877;28;20068;-74
2020/12/19 09:54:49;;;;;;;6.03;3.58;;;17.90;50.00;;;;;;5071523;28;20049;-74
2020/12/19 09:57:35;;;;;;;6.32;3.42;;;17.90;49.50;;;;;;5075298;28;20179;-74
2020/12/19 10:00:01;;;;;;;5.78;3.70;;;17.80;49.50;;;;;;5071621;28;20074;-74
2020/12/19 10:02:27;;;;;;;4.72;3.45;;;17.80;49.50;;;;;;5073574;28;20106;-74
2020/12/19 10:05:12;;;;;;;5.97;3.65;;;17.90;49.50;;;;;;5083888;28;20043;-74
2020/12/19 10:07:38;;;;;;;6.45;3.50;;;17.90;49.50;;;;;;5068598;28;20402;-74
2020/12/19 10:10:04;;;;;;;8.80;3.70;;;17.90;49.50;;;;;;5087297;28;20043;-78
2020/12/19 10:12:30;;;;;;;5.93;4.05;;;17.90;49.50;;;;;;5089205;28;20537;-75
2020/12/19 10:14:56;;;;;;;6.20;3.80;;;17.90;49.50;;;;;;5073269;28;20044;-74
2020/12/19 10:17:41;;;;;;;8.60;4.10;;;18.00;49.50;;;;;;5074980;28;20056;-75
2020/12/19 10:20:27;;;;;;;8.27;3.75;;;18.00;49.30;;;;;;5044522;28;20052;-73
2020/12/19 10:22:53;;;;;;;6.35;4.00;;;18.00;49.30;;;;;;5067682;28;20046;-74
2020/12/19 10:25:18;;;;;;;4.43;3.70;;;17.90;49.30;;;;;;5073495;28;20055;-74
2020/12/19 10:27:44;;;;;;;8.90;3.58;;;18.00;49.40;;;;;;5089474;28;20151;-74
2020/12/19 10:30:10;;;;;;;5.63;3.40;;;18.00;49.30;;;;;;5069476;28;20101;-74
2020/12/19 10:32:36;;;;;;;4.90;3.60;;;18.20;49.10;;;;;;5087979;28;20154;-74
2020/12/19 10:35:06;;;;;;;5.18;3.60;;;18.50;48.60;;;;;;5054723;28;20115;-75
2020/12/19 10:37:32;;;;;;;6.28;3.55;;;18.70;48.20;;;;;;5075122;28;20114;-75
2020/12/19 10:39:58;;;;;;;7.53;3.60;;;18.90;47.80;;;;;;5089126;28;20048;-74
2020/12/19 10:42:24;;;;;;;5.72;3.47;;;19.00;47.70;;;;;;5090579;28;20034;-75
2020/12/19 10:44:50;;;;;;;5.57;3.38;;;19.10;47.40;;;;;;5087826;28;20082;-75
2020/12/19 10:47:15;;;;;;;5.63;3.35;;;19.30;47.20;;;;;;5070900;28;20110;-74
2020/12/19 10:49:41;;;;;;;4.28;3.25;;;19.30;47.00;;;;;;5066408;28;20432;-74
2020/12/19 10:52:07;;;;;;;5.72;3.50;;;19.50;46.90;;;;;;5086111;28;20447;-75
2020/12/19 10:54:33;;;;;;;9.23;3.58;;;19.60;47.30;;;;;;5070670;28;20044;-74
2020/12/19 10:56:59;;;;;;;4.93;3.50;;;19.70;46.50;;;;;;5069588;28;20049;-75
2020/12/19 10:59:25;;;;;;;4.45;3.25;;;19.90;46.70;;;;;;5089287;28;20545;-75
2020/12/19 11:01:51;;;;;;;4.03;3.40;;;19.90;46.00;;;;;;5071286;28;20032;-74
2020/12/19 11:04:37;;;;;;;4.70;3.30;;;20.00;45.80;;;;;;5076201;28;20545;-73
2020/12/19 11:07:02;;;;;;;4.75;3.13;;;20.00;45.70;;;;;;5087509;28;20032;-72
2020/12/19 11:09:28;;;;;;;7.63;3.45;;;20.00;45.80;;;;;;5089429;28;20467;-73
2020/12/19 11:11:54;;;;;;;3.78;2.92;;;20.00;45.80;;;;;;5073354;28;20048;-73
2020/12/19 11:14:21;;;;;;;8.73;3.50;;;20.10;45.80;;;;;;5073304;28;20059;-73
2020/12/19 11:16:47;;;;;;;5.05;3.40;;;20.10;45.90;;;;;;5091465;28;20052;-73
2020/12/19 11:19:12;;;;;;;9.13;3.38;;;20.10;45.80;;;;;;5073064;28;20044;-73
2020/12/19 11:21:44;;;;;;;6.30;3.03;;;20.00;46.00;;;;;;5091026;28;20087;-73
2020/12/19 11:24:30;;;;;;;3.92;2.97;;;19.90;45.90;;;;;;5062897;28;20429;-73
2020/12/19 11:26:55;;;;;;;4.55;3.33;;;19.80;46.30;;;;;;5074091;28;20089;-73
2020/12/19 11:29:21;;;;;;;6.50;3.22;;;19.80;46.40;;;;;;5090243;28;20028;-73
2020/12/19 11:31:48;;;;;;;12.88;3.95;;;19.80;46.40;;;;;;5053793;28;20155;-73
2020/12/19 11:34:14;;;;;;;4.72;3.50;;;19.70;46.60;;;;;;5055550;28;20243;-73
2020/12/19 11:36:40;;;;;;;5.95;3.10;;;19.60;46.80;;;;;;5091185;28;20115;-73
2020/12/19 11:39:07;;;;;;;5.30;3.17;;;19.60;47.00;;;;;;5090397;28;20048;-73
2020/12/19 11:41:33;;;;;;;5.95;3.47;;;19.50;47.10;;;;;;5074108;28;20147;-73
2020/12/19 11:44:19;;;;;;;6.65;3.22;;;19.40;47.30;;;;;;5063018;28;20048;-73
2020/12/19 11:47:04;;;;;;;6.00;3.33;;;19.40;47.40;;;;;;5077141;28;20048;-73
2020/12/19 11:49:30;;;;;;;4.90;3.33;;;19.40;47.50;;;;;;5089840;28;20117;-73
2020/12/19 11:51:58;;;;;;;4.78;3.20;;;19.20;47.70;;;;;;5092350;28;20036;-73
2020/12/19 11:54:44;;;;;;;3.67;2.90;;;19.20;47.90;;;;;;5076909;28;20044;-73
2020/12/19 11:57:10;;;;;;;4.55;3.10;;;19.10;48.00;;;;;;5073783;28;20105;-73
2020/12/19 11:59:35;;;;;;;6.35;3.63;;;19.10;48.20;;;;;;5090987;28;20400;-73
2020/12/19 12:02:02;;;;;;;4.85;2.85;;;19.00;48.30;;;;;;5069919;28;20462;-73
2020/12/19 12:04:28;;;;;;;5.65;3.42;;;18.90;48.40;;;;;;5036676;28;20539;-73
2020/12/19 12:06:54;;;;;;;5.70;3.30;;;18.90;48.50;;;;;;5040854;28;20127;-73
2020/12/19 12:09:19;;;;;;;6.30;3.42;;;18.90;48.60;;;;;;5040124;28;20051;-73
2020/12/19 12:11:45;;;;;;;5.28;3.33;;;18.90;48.70;;;;;;5073417;28;20151;-73
2020/12/19 12:14:31;;;;;;;5.72;3.22;;;18.90;48.70;;;;;;5062515;28;20052;-73
2020/12/19 12:16:56;;;;;;;4.95;3.35;;;18.90;48.90;;;;;;5087705;28;20373;-75
2020/12/19 12:19:22;;;;;;;5.50;3.10;;;18.80;48.90;;;;;;5086379;28;20036;-73
2020/12/19 12:21:48;;;;;;;6.15;3.40;;;18.80;49.00;;;;;;5067452;28;20459;-73
2020/12/19 12:24:13;;;;;;;5.60;3.17;;;18.80;49.10;;;;;;5081232;28;20415;-73
2020/12/19 12:26:39;;;;;;;4.63;3.17;;;18.80;49.20;;;;;;5082994;28;20108;-73
2020/12/19 12:29:05;;;;;;;4.68;3.28;;;18.80;49.30;;;;;;5090172;28;20119;-72
2020/12/19 12:31:31;;;;;;;4.93;3.25;;;18.70;49.20;;;;;;5058534;28;20040;-72
2020/12/19 12:33:57;;;;;;;4.28;3.28;;;18.80;49.40;;;;;;5075694;28;20040;-72
2020/12/19 12:36:24;;;;;;;6.13;3.13;;;18.80;49.40;;;;;;5084487;28;20048;-72
2020/12/19 12:38:50;;;;;;;4.95;3.38;;;18.80;49.40;;;;;;5087917;28;20052;-72
2020/12/19 12:41:16;;;;;;;5.25;3.30;;;18.80;49.30;;;;;;5076009;28;20055;-72
2020/12/19 12:43:42;;;;;;;6.03;3.20;;;18.80;49.30;;;;;;5060553;28;20145;-72
2020/12/19 12:46:09;;;;;;;6.40;3.67;;;18.80;49.40;;;;;;5075112;28;20444;-72
2020/12/19 12:48:35;;;;;;;4.13;3.20;;;18.80;49.50;;;;;;5075836;28;20052;-72
2020/12/19 12:51:20;;;;;;;6.05;3.58;;;18.80;49.40;;;;;;5063905;28;20447;-72
2020/12/19 12:53:50;;;;;;;4.10;3.17;;;18.80;49.50;;;;;;5085181;28;20127;-73
2020/12/19 12:56:16;;;;;;;5.35;3.53;;;18.80;49.50;;;;;;5058099;28;20055;-73
2020/12/19 12:59:01;;;;;;;7.07;3.38;;;18.80;49.60;;;;;;5062376;28;20045;-72
2020/12/19 13:01:47;;;;;;;6.90;3.42;;;18.80;49.50;;;;;;5071285;28;20464;-72
2020/12/19 13:04:33;;;;;;;4.43;3.20;;;18.80;49.50;;;;;;5067793;28;20048;-73
2020/12/19 13:06:58;;;;;;;5.25;3.60;;;18.70;49.60;;;;;;5071928;28;20092;-73
2020/12/19 13:09:24;;;;;;;5.05;3.28;;;18.70;49.70;;;;;;5088350;28;20032;-72